Etusivu
METAR-TAF:

METAR-TAF

Lentoasemat :

Pipestone Municipal Airport

Pipestone, Minnesota, Yhdysvallat

Leveyspiiri: 43-59N, Pituuspiiri: 096-19W, korkeus merenpinnasta: 529 m

Tämänhetkinen sää

Tämä raportti tehtiin 11 minuuttia sitten, kello 17.55 UTC
Tuuli 5 kn lännestä
Lämpötila 2°C
Kosteus 75%
Ilmanpaine 1022 hPa
Näkyvyys: 16.1 km
selkeää

METAR: KPQN 141755Z AUTO 26005KT 10SM CLR 02/M02 A3017 RMK AO2

Aika: 12:06 (18:06 UTC)


TAF: puuttuu

Säähavainnot ja -ennusteet yli 4000 lentoasemalta (METAR- ja TAF-raportit).

Käytössä olevat sääasemat on merkitty karttaan keltaisilla ja punaisilla pisteillä.

Aseta hiiri pisteen päälle nähdäksesi sääaseman nimen.

Klikkaa sitten nähdäksesi säähavainnot ja -ennusteet.

Kartan vaihtaminen: klikkaa mustalla rastilla varustettuja vihreitä pisteitä, niin voit zoomata sisään; viivalla varustettua vihreää pistettä, niin voit zoomata ulos tai vihreitä nuolia, niin pääset viereisille kartoille.


METAR-TAF: